.
WxDataArchive / Data Records for 2015-12-23
2015-12-22 December 2015 2015-12-24

Data Records for Wednesday, 23 December 2015

Time	Temp	Chill	HIndex	Humid	Dewpt	 Wind 	HiWind	WindDir	Rain 	Barom
-----	----	-----	------	-----	-----	------	------	-------	-----	-----
00:00	37.6	37.6	37.6	93	35.8	0	2	90	0.00	29.813 
00:05	37.6	37.6	37.6	93	35.8	0	1	90	0.00	29.813 
00:10	37.5	37.5	37.5	94	35.9	0	2	90	0.00	29.813 
00:15	37.5	37.5	37.5	94	35.9	0	2	90	0.00	29.815 
00:20	37.5	37.5	37.5	94	35.9	0	2	90	0.00	29.815 
00:25	37.6	37.6	37.6	94	36.0	1	2	90	0.00	29.815 
00:30	37.8	37.8	37.8	94	36.2	0	2	90	0.00	29.811 
00:35	37.9	37.9	37.9	94	36.3	1	2	90	0.00	29.811 
00:40	38.0	38.0	38.0	94	36.4	0	2	90	0.00	29.811 
00:45	38.0	38.0	38.0	94	36.4	0	2	90	0.00	29.812 
00:50	38.0	38.0	38.0	94	36.4	0	2	90	0.00	29.812 
00:55	38.0	38.0	38.0	94	36.4	0	1	90	0.00	29.812 
01:00	38.2	38.2	38.2	94	36.6	1	3	90	0.00	29.808 
01:05	38.3	38.3	38.3	94	36.7	0	2	90	0.00	29.808 
01:10	38.3	38.3	38.3	94	36.7	1	2	90	0.00	29.808 
01:15	38.3	38.3	38.3	94	36.7	0	2	90	0.00	29.799 
01:20	38.5	38.5	38.5	94	36.9	1	4	90	0.00	29.799 
01:25	38.5	38.5	38.5	94	36.9	1	2	90	0.00	29.799 
01:30	38.5	38.5	38.5	94	36.9	0	3	90	0.00	29.795 
01:35	38.5	38.5	38.5	94	36.9	1	3	90	0.00	29.795 
01:40	38.3	38.3	38.3	94	36.7	0	2	90	0.00	29.795 
01:45	38.3	38.3	38.3	94	36.7	0	1	90	0.00	29.791 
01:50	38.3	38.3	38.3	94	36.7	1	3	90	0.00	29.791 
01:55	38.5	38.5	38.5	94	36.9	0	2	90	0.00	29.791 
02:00	38.6	38.6	38.6	95	37.3	0	2	90	0.00	29.791 
02:05	38.6	38.6	38.6	94	37.0	1	3	90	0.00	29.791 
02:10	38.6	38.6	38.6	94	37.0	1	4	90	0.00	29.791 
02:15	38.6	38.6	38.6	94	37.0	1	3	90	0.00	29.781 
02:20	38.8	38.8	38.8	94	37.2	0	2	90	0.00	29.781 
02:25	38.8	38.8	38.8	95	37.5	1	3	90	0.00	29.781 
02:30	38.9	38.9	38.9	95	37.6	1	2	90	0.00	29.768 
02:35	39.1	39.1	39.1	95	37.8	1	4	90	0.00	29.768 
02:40	39.1	39.1	39.1	95	37.8	1	3	90	0.00	29.768 
02:45	39.3	39.3	39.3	95	38.0	1	3	90	0.00	29.767 
02:50	39.5	39.5	39.5	95	38.2	0	2	90	0.00	29.767 
02:55	39.5	39.5	39.5	95	38.2	1	5	90	0.00	29.767 
03:00	39.5	39.5	39.5	95	38.2	1	3	90	0.00	29.767 
03:05	39.5	39.5	39.5	95	38.2	1	4	90	0.00	29.767 
03:10	39.5	39.5	39.5	95	38.2	0	2	90	0.00	29.767 
03:15	39.5	39.5	39.5	95	38.2	0	1	90	0.00	29.759 
03:20	39.6	39.6	39.6	95	38.3	0	3	90	0.00	29.759 
03:25	39.8	39.8	39.8	95	38.5	0	2	90	0.00	29.759 
03:30	39.9	39.9	39.9	95	38.6	1	4	90	0.00	29.759 
03:35	40.1	40.1	40.1	95	38.8	1	4	90	0.00	29.759 
03:40	40.2	40.2	40.2	95	38.9	0	1	90	0.00	29.759 
03:45	40.3	40.3	40.3	95	39.0	0	1	90	0.00	29.758 
03:50	40.5	40.5	40.5	95	39.2	0	1	90	0.00	29.758 
03:55	40.5	40.5	40.5	95	39.2	0	1	90	0.00	29.758 
04:00	40.6	40.6	40.6	95	39.3	0	2	90	0.00	29.760 
04:05	40.8	40.8	40.8	95	39.5	0	1	90	0.00	29.760 
04:10	41.1	41.1	41.1	96	40.0	0	2	90	0.00	29.760 
04:15	41.2	41.2	41.2	96	40.1	0	1	90	0.00	29.751 
04:20	41.3	41.3	41.3	96	40.2	1	2	90	0.00	29.751 
04:25	41.6	41.6	41.6	96	40.5	0	3	90	0.00	29.751 
04:30	41.8	41.8	41.8	96	40.7	0	2	90	0.00	29.750 
04:35	41.8	41.8	41.8	96	40.7	0	1	90	0.00	29.750 
04:40	42.1	42.1	42.1	96	41.0	0	1	90	0.00	29.750 
04:45	42.2	42.2	42.2	96	41.1	0	1	90	0.00	29.743 
04:50	42.3	42.3	42.3	96	41.2	0	1	90	0.00	29.743 
04:55	42.3	42.3	42.3	96	41.2	0	0	---	0.00	29.743 
05:00	42.5	42.5	42.5	96	41.4	0	1	90	0.00	29.731 
05:05	42.6	42.6	42.6	96	41.5	0	1	90	0.00	29.731 
05:10	42.8	42.8	42.8	96	41.7	0	2	90	0.00	29.731 
05:15	42.9	42.9	42.9	96	41.8	0	1	90	0.00	29.724 
05:20	43.2	43.2	43.2	96	42.1	0	2	90	0.00	29.724 
05:25	43.5	43.5	43.5	96	42.4	0	1	90	0.00	29.724 
05:30	43.9	43.9	43.9	96	42.8	0	1	90	0.00	29.719 
05:35	44.2	44.2	44.2	96	43.1	0	1	90	0.00	29.719 
05:40	44.5	44.5	44.5	96	43.4	0	1	90	0.00	29.719 
05:45	44.8	44.8	44.8	96	43.7	0	0	---	0.00	29.715 
05:50	45.1	45.1	45.1	96	44.0	0	1	90	0.00	29.715 
05:55	45.4	45.4	45.4	96	44.3	0	1	90	0.00	29.715 
06:00	45.7	45.7	45.7	96	44.6	0	2	90	0.00	29.702 
06:05	46.1	46.1	46.1	96	45.0	0	1	90	0.00	29.702 
06:10	46.5	46.5	46.5	96	45.4	0	1	90	0.00	29.702 
06:15	47.0	47.0	47.0	96	45.9	0	1	90	0.00	29.696 
06:20	47.6	47.6	47.6	97	46.8	0	1	90	0.00	29.696 
06:25	48.2	48.2	48.2	97	47.4	0	0	---	0.00	29.696 
06:30	48.5	48.5	48.5	97	47.7	0	0	---	0.00	29.688 
06:35	48.8	48.8	48.8	97	48.0	0	3	90	0.00	29.688 
06:40	49.2	49.2	49.2	97	48.4	0	2	90	0.00	29.688 
06:45	49.8	49.8	49.8	97	49.0	1	3	90	0.00	29.681 
06:50	50.2	50.2	50.2	97	49.4	1	3	90	0.00	29.681 
06:55	50.7	50.7	50.7	97	49.9	1	3	90	0.00	29.681 
07:00	51.0	51.0	51.0	97	50.2	0	2	90	0.00	29.675 
07:05	51.1	51.1	51.1	97	50.3	0	1	90	0.00	29.675 
07:10	51.3	51.3	51.3	97	50.5	0	2	90	0.00	29.675 
07:15	51.7	51.7	51.7	97	50.9	1	4	90	0.00	29.668 
07:20	52.0	52.0	52.0	97	51.2	1	3	90	0.00	29.668 
07:25	52.2	52.2	52.2	97	51.4	1	2	135	0.00	29.668 
07:30	52.5	52.5	52.5	97	51.7	0	3	112	0.00	29.659 
07:35	52.6	52.6	52.6	97	51.8	0	2	135	0.00	29.659 
07:40	52.8	52.8	52.8	97	52.0	0	4	135	0.00	29.659 
07:45	52.9	52.9	52.9	97	52.1	0	3	112	0.00	29.659 
07:50	53.1	53.1	53.1	97	52.3	0	3	112	0.00	29.659 
07:55	53.2	53.2	53.2	97	52.4	0	2	112	0.00	29.659 
08:00	53.3	53.3	53.3	97	52.5	0	2	112	0.00	29.662 
08:05	53.5	53.5	53.5	97	52.7	0	3	90	0.00	29.662 
08:10	53.6	53.6	53.6	97	52.8	0	2	112	0.00	29.662 
08:15	53.6	53.6	53.6	97	52.8	0	3	90	0.00	29.649 
08:20	53.8	53.8	53.8	97	53.0	1	4	90	0.00	29.649 
08:25	53.8	53.8	53.8	97	53.0	0	2	90	0.00	29.649 
08:30	53.9	53.9	53.9	97	53.1	0	2	90	0.00	29.648 
08:35	53.9	53.9	53.9	97	53.1	0	2	90	0.00	29.648 
08:40	54.1	54.1	54.1	97	53.3	0	3	90	0.00	29.648 
08:45	54.2	54.2	54.2	97	53.4	0	2	112	0.01	29.640 
08:50	54.4	54.4	54.4	97	53.6	1	3	112	0.00	29.640 
08:55	54.5	54.5	54.5	97	53.7	1	3	158	0.00	29.640 
09:00	54.7	54.7	54.7	97	53.9	1	3	135	0.00	29.641 
09:05	54.8	54.8	54.8	97	54.0	1	2	135	0.00	29.641 
09:10	55.0	55.0	55.0	97	54.2	1	4	112	0.01	29.641 
09:15	55.1	55.1	55.1	97	54.3	1	3	112	0.00	29.638 
09:20	55.4	55.4	55.4	97	54.6	1	5	135	0.00	29.638 
09:25	55.7	55.7	55.7	97	54.9	1	4	90	0.00	29.638 
09:30	55.9	55.9	55.9	97	55.1	2	4	112	0.00	29.634 
09:35	56.0	56.0	56.0	97	55.2	2	5	90	0.00	29.634 
09:40	56.2	56.2	56.2	97	55.4	2	7	112	0.00	29.634 
09:45	56.5	56.5	56.5	97	55.7	2	4	90	0.00	29.626 
09:50	56.6	56.6	56.6	97	55.8	2	6	90	0.00	29.626 
09:55	56.7	56.7	56.7	97	55.9	1	4	112	0.00	29.626 
10:00	56.9	56.9	56.9	97	56.1	1	6	112	0.00	29.621 
10:05	57.0	57.0	57.0	97	56.2	2	7	90	0.00	29.621 
10:10	57.2	57.2	57.2	97	56.4	2	4	90	0.00	29.621 
10:15	57.3	57.3	57.3	97	56.5	2	5	112	0.00	29.614 
10:20	57.5	57.5	57.5	97	56.7	2	6	112	0.00	29.614 
10:25	57.8	57.8	57.8	97	57.0	1	4	112	0.00	29.614 
10:30	58.1	58.1	58.1	97	57.3	2	11	135	0.00	29.595 
10:35	58.3	58.3	58.3	97	57.5	2	6	112	0.00	29.595 
10:40	58.4	58.4	58.4	97	57.5	2	10	135	0.00	29.595 
10:45	58.4	58.4	58.4	97	57.5	1	7	112	0.00	29.583 
10:50	58.6	58.6	58.6	97	57.7	2	5	90	0.00	29.583 
10:55	58.7	58.7	58.7	97	57.8	2	5	90	0.00	29.583 
11:00	59.0	59.0	59.0	97	58.1	2	5	112	0.00	29.568 
11:05	59.2	59.2	59.2	97	58.3	2	7	90	0.00	29.568 
11:10	59.3	59.3	59.3	97	58.4	2	10	90	0.00	29.568 
11:15	59.3	59.3	59.3	97	58.4	1	4	112	0.00	29.559 
11:20	59.3	59.3	59.3	97	58.4	2	7	112	0.00	29.559 
11:25	59.6	59.6	59.6	96	58.5	2	6	112	0.00	29.559 
11:30	59.6	59.6	59.6	96	58.5	2	6	90	0.00	29.551 
11:35	59.8	59.8	59.8	96	58.7	2	9	112	0.00	29.551 
11:40	59.9	59.9	59.9	96	58.8	1	5	90	0.00	29.551 
11:45	59.9	59.9	59.9	96	58.8	3	7	112	0.00	29.531 
11:50	60.1	60.1	60.1	95	58.7	2	9	135	0.00	29.531 
11:55	60.2	60.2	60.2	95	58.8	1	6	90	0.00	29.531 
12:00	60.4	60.4	60.4	94	58.7	1	4	90	0.00	29.515 
12:05	60.5	60.5	60.5	94	58.8	2	5	90	0.00	29.515 
12:10	60.7	60.7	60.7	93	58.7	2	6	112	0.00	29.515 
12:15	61.0	61.0	61.0	93	59.0	2	6	90	0.00	29.501 
12:20	61.2	61.2	61.2	92	58.9	2	4	90	0.00	29.501 
12:25	61.3	61.3	61.3	91	58.6	2	6	90	0.00	29.501 
12:30	61.6	61.6	61.6	90	58.6	3	9	90	0.00	29.497 
12:35	62.0	62.0	62.0	89	58.7	3	5	90	0.00	29.497 
12:40	62.1	62.1	62.1	88	58.5	3	10	112	0.00	29.497 
12:45	62.4	62.4	62.4	86	58.2	3	9	90	0.00	29.481 
12:50	62.6	62.6	62.6	85	58.0	3	9	90	0.00	29.481 
12:55	62.7	62.7	62.7	84	57.8	4	10	90	0.00	29.481 
13:00	63.1	63.1	63.1	84	58.2	4	12	90	0.00	29.454 
13:05	63.2	63.2	63.2	83	57.9	4	17	90	0.00	29.454 
13:10	63.4	63.4	63.4	83	58.1	3	11	90	0.00	29.454 
13:15	63.4	63.4	63.4	82	57.8	4	12	112	0.00	29.441 
13:20	63.5	63.5	63.5	82	57.9	5	18	90	0.00	29.441 
13:25	63.7	63.7	63.7	81	57.8	4	11	90	0.00	29.441 
13:30	63.7	63.7	63.7	82	58.1	3	10	90	0.00	29.433 
13:35	63.7	63.7	63.7	82	58.1	4	10	90	0.00	29.433 
13:40	63.7	63.7	63.7	82	58.1	4	13	112	0.00	29.433 
13:45	63.7	63.7	63.7	82	58.1	4	9	90	0.00	29.418 
13:50	63.7	63.7	63.7	82	58.1	3	10	90	0.00	29.418 
13:55	63.7	63.7	63.7	81	57.8	4	11	112	0.00	29.418 
14:00	63.5	63.5	63.5	81	57.6	5	11	90	0.00	29.411 
14:05	63.5	63.5	63.5	82	57.9	4	11	90	0.00	29.411 
14:10	63.4	63.4	63.4	82	57.8	6	20	90	0.00	29.411 
14:15	63.4	63.4	63.4	82	57.8	4	9	90	0.00	29.403 
14:20	63.4	63.4	63.4	82	57.8	4	13	90	0.00	29.403 
14:25	63.2	63.2	63.2	82	57.6	4	11	90	0.00	29.403 
14:30	63.2	63.2	63.2	82	57.6	4	11	112	0.00	29.403 
14:35	63.1	63.1	63.1	83	57.8	4	9	90	0.00	29.403 
14:40	62.9	62.9	62.9	84	58.0	5	15	90	0.00	29.403 
14:45	62.6	62.6	62.6	85	58.0	4	7	112	0.00	29.388 
14:50	62.4	62.4	62.4	85	57.8	5	15	90	0.00	29.388 
14:55	62.3	62.3	62.3	86	58.1	4	12	135	0.00	29.388 
15:00	62.1	62.1	62.1	87	58.2	4	11	90	0.00	29.372 
15:05	62.0	62.0	62.0	87	58.1	3	7	112	0.01	29.372 
15:10	61.8	61.8	61.8	88	58.2	4	12	90	0.01	29.372 
15:15	61.6	61.6	61.6	88	58.0	4	9	90	0.01	29.358 
15:20	61.3	61.3	61.3	89	58.0	4	11	90	0.02	29.358 
15:25	61.2	61.2	61.2	90	58.2	3	10	90	0.01	29.358 
15:30	61.0	61.0	61.0	90	58.0	3	9	90	0.00	29.360 
15:35	60.9	60.9	60.9	91	58.3	4	9	90	0.02	29.360 
15:40	60.9	60.9	60.9	91	58.3	5	10	90	0.01	29.360 
15:45	60.9	60.9	60.9	91	58.3	4	9	90	0.02	29.362 
15:50	60.9	60.9	60.9	92	58.6	4	14	90	0.03	29.362 
15:55	60.7	60.7	60.7	92	58.4	4	10	112	0.02	29.362 
16:00	60.7	60.7	60.7	92	58.4	3	10	90	0.01	29.367 
16:05	60.7	60.7	60.7	92	58.4	4	11	112	0.01	29.367 
16:10	60.7	60.7	60.7	92	58.4	4	13	90	0.00	29.367 
16:15	60.7	60.7	60.7	92	58.4	4	13	90	0.01	29.369 
16:20	60.5	60.5	60.5	92	58.2	3	7	90	0.01	29.369 
16:25	60.5	60.5	60.5	92	58.2	2	5	112	0.01	29.369 
16:30	60.4	60.4	60.4	93	58.4	3	6	112	0.02	29.371 
16:35	60.4	60.4	60.4	93	58.4	2	10	90	0.00	29.371 
16:40	60.4	60.4	60.4	93	58.4	2	5	112	0.01	29.371 
16:45	60.4	60.4	60.4	93	58.4	3	11	112	0.02	29.375 
16:50	60.4	60.4	60.4	93	58.4	2	5	90	0.02	29.375 
16:55	59.6	59.6	59.6	92	57.3	5	15	270	0.11	29.375 
17:00	57.8	57.8	57.8	91	55.2	4	11	248	0.02	29.426 
17:05	56.6	56.6	56.6	91	54.0	2	5	248	0.01	29.426 
17:10	56.0	56.0	56.0	92	53.7	1	6	248	0.01	29.426 
17:15	55.7	55.7	55.7	92	53.4	1	3	270	0.01	29.402 
17:20	55.4	55.4	55.4	92	53.1	0	3	270	0.00	29.402 
17:25	55.3	55.3	55.3	93	53.3	1	2	270	0.01	29.402 
17:30	55.1	55.1	55.1	93	53.1	0	3	270	0.00	29.404 
17:35	55.0	55.0	55.0	93	53.0	0	1	270	0.01	29.404 
17:40	55.0	55.0	55.0	93	53.0	0	2	270	0.01	29.404 
17:45	54.8	54.8	54.8	93	52.8	0	1	270	0.02	29.383 
17:50	54.8	54.8	54.8	94	53.1	0	1	270	0.00	29.383 
17:55	54.7	54.7	54.7	94	53.0	0	4	112	0.01	29.383 
18:00	54.7	54.7	54.7	94	53.0	0	3	112	0.01	29.396 
18:05	54.8	54.8	54.8	94	53.1	1	4	90	0.02	29.396 
18:10	54.8	54.8	54.8	94	53.1	1	3	90	0.02	29.396 
18:15	54.7	54.7	54.7	94	53.0	2	5	112	0.01	29.381 
18:20	54.7	54.7	54.7	94	53.0	2	5	112	0.00	29.381 
18:25	54.5	54.5	54.5	94	52.8	2	9	90	0.01	29.381 
18:30	54.5	54.5	54.5	94	52.8	2	6	112	0.00	29.367 
18:35	54.5	54.5	54.5	94	52.8	2	5	112	0.00	29.367 
18:40	54.5	54.5	54.5	94	52.8	2	7	90	0.00	29.367 
18:45	54.5	54.5	54.5	94	52.8	2	5	90	0.01	29.352 
18:50	54.5	54.5	54.5	94	52.8	3	9	90	0.00	29.352 
18:55	54.5	54.5	54.5	94	52.8	3	9	90	0.00	29.352 
19:00	54.7	54.7	54.7	93	52.7	2	5	90	0.00	29.347 
19:05	54.7	54.7	54.7	93	52.7	3	7	112	0.00	29.347 
19:10	54.8	54.8	54.8	92	52.5	2	9	90	0.00	29.347 
19:15	54.8	54.8	54.8	92	52.5	1	5	90	0.00	29.335 
19:20	55.1	55.1	55.1	92	52.8	3	7	90	0.01	29.335 
19:25	55.4	55.4	55.4	91	52.8	2	6	45	0.00	29.335 
19:30	55.7	55.7	55.7	91	53.1	3	6	90	0.00	29.337 
19:35	56.0	56.0	56.0	89	52.8	3	11	90	0.01	29.337 
19:40	56.3	56.3	56.3	89	53.1	4	12	68	0.00	29.337 
19:45	56.6	56.6	56.6	88	53.1	5	10	90	0.00	29.301 
19:50	56.9	56.9	56.9	86	52.8	7	16	90	0.00	29.301 
19:55	57.2	57.2	57.2	85	52.7	5	13	112	0.00	29.301 
20:00	57.3	57.3	57.3	84	52.5	5	13	90	0.00	29.219 
20:05	57.5	57.5	57.5	84	52.7	4	10	90	0.00	29.219 
20:10	58.0	58.0	58.0	83	52.9	6	12	90	0.00	29.219 
20:15	58.1	58.1	58.1	82	52.6	5	11	90	0.00	29.243 
20:20	58.3	58.3	58.3	82	52.8	4	12	90	0.01	29.243 
20:25	58.3	58.3	58.3	81	52.5	5	15	90	0.00	29.243 
20:30	58.4	58.4	58.4	81	52.6	5	11	90	0.00	29.259 
20:35	58.4	58.4	58.4	81	52.6	5	16	112	0.00	29.259 
20:40	58.4	58.4	58.4	81	52.6	5	12	90	0.00	29.259 
20:45	58.4	58.4	58.4	82	52.9	5	11	90	0.00	29.275 
20:50	58.3	58.3	58.3	82	52.8	5	14	90	0.00	29.275 
20:55	58.0	58.0	58.0	83	52.9	4	15	90	0.00	29.275 
21:00	57.8	57.8	57.8	84	53.0	3	9	90	0.00	29.283 
21:05	57.5	57.5	57.5	84	52.7	3	10	112	0.00	29.283 
21:10	57.3	57.3	57.3	84	52.5	4	13	112	0.00	29.283 
21:15	57.2	57.2	57.2	84	52.4	3	10	90	0.00	29.295 
21:20	57.0	57.0	57.0	84	52.2	3	7	90	0.00	29.295 
21:25	57.0	57.0	57.0	83	51.9	4	15	112	0.00	29.295 
21:30	57.0	57.0	57.0	83	51.9	2	5	45	0.00	29.307 
21:35	57.0	57.0	57.0	84	52.2	2	10	90	0.00	29.307 
21:40	56.9	56.9	56.9	84	52.1	1	4	112	0.00	29.307 
21:45	56.7	56.7	56.7	84	51.9	1	4	90	0.00	29.316 
21:50	56.7	56.7	56.7	84	51.9	1	6	90	0.00	29.316 
21:55	56.6	56.6	56.6	84	51.8	1	4	90	0.00	29.316 
22:00	56.5	56.5	56.5	84	51.7	1	5	90	0.00	29.325 
22:05	56.6	56.6	56.6	83	51.5	2	7	112	0.00	29.325 
22:10	56.7	56.7	56.7	83	51.6	1	4	248	0.00	29.325 
22:15	56.7	56.7	56.7	83	51.6	0	2	248	0.00	29.329 
22:20	56.7	56.7	56.7	82	51.3	1	4	248	0.00	29.329 
22:25	56.9	56.9	56.9	82	51.5	1	10	225	0.00	29.329 
22:30	56.9	56.9	56.9	82	51.5	1	3	248	0.00	29.333 
22:35	56.9	56.9	56.9	82	51.5	1	4	248	0.00	29.333 
22:40	56.7	56.7	56.7	82	51.3	1	7	248	0.00	29.333 
22:45	56.9	56.9	56.9	82	51.5	1	3	45	0.00	29.344 
22:50	57.0	57.0	57.0	82	51.6	1	4	270	0.00	29.344 
22:55	57.2	57.2	57.2	82	51.8	1	4	248	0.00	29.344 
23:00	57.2	57.2	57.2	81	51.4	2	5	248	0.00	29.350 
23:05	57.3	57.3	57.3	81	51.5	1	5	248	0.00	29.350 
23:10	57.3	57.3	57.3	81	51.5	2	4	248	0.00	29.350 
23:15	57.2	57.2	57.2	81	51.4	1	5	248	0.00	29.348 
23:20	57.0	57.0	57.0	81	51.2	1	4	248	0.00	29.348 
23:25	57.0	57.0	57.0	81	51.2	2	6	270	0.00	29.348 
23:30	57.0	57.0	57.0	81	51.2	1	6	248	0.00	29.360 
23:35	57.0	57.0	57.0	82	51.6	2	7	248	0.00	29.360 
23:40	57.0	57.0	57.0	82	51.6	3	11	248	0.00	29.360 
23:45	57.2	57.2	57.2	82	51.8	2	7	248	0.00	29.374 
23:50	57.2	57.2	57.2	82	51.8	2	9	248	0.00	29.374 
23:55	57.0	57.0	57.0	82	51.6	2	9	248	0.00	29.374 

CoCoRaHS
IN-AL-39
A2 Web Hosting
Creative Commons License
GoDaddy
search engine by freefind advanced

loaded 2018-11-15 14:28:10 • last modified 2010-11-18 10:43:29
Privacy PolicyDisclaimer
• wx.awcolley.com is powered by PmWiki v.2002016 •
• all content (unless otherwise noted) © 2018 A W Colley